首页
METAR-TAF:

METAR-TAF

机场 :

Winslow, 亞利桑那州, 美国

纬度: 35-01-41N, 经度: 110-43-15W, 海拔: 1505米

当前天气观测

该预报发布于57分钟前的22:04 UTC
风速4节,风向南转南东
温度 10°C
湿度 76%
气压 1016 hPa
能見度: 16.1公里
少量云层高于2200英尺
散云层高于2800英尺
阴天层高于4000英尺

METAR: KINW 212204Z AUTO 15004KT 10SM FEW022 SCT028 OVC040 10/06 A3001 RMK AO2 T01000056

时间: 16:01 (23:01 UTC)

预报

该预报发布于3小时和59分钟前的19:02 UTC
预报有效从21日的 19点(UTC)到 22日的 18点(UTC)
风速5节,风向多变
能見度: 9.7公里
散云层高于400英尺
阴天层高于3000英尺
小阵雨
从 21日的 2300点(UTC)
风速6节,风向西转西南
能見度: 10公里
散云层高于2000英尺
多云层高于4000英尺

TAF: KINW 211902Z 2119/2218 VRB05KT 6SM -SHRA SCT004 OVC030 FM212300 25006KT P6SM SCT020 BKN040

超过4000个机场的气象观测和天气预报(METAR&TAF报告)。

可查询的气象台以黄色和红色小点在地图上表示。

将鼠标移到小点上方,可查看气象台名称。

然后点击查看天气观测和预报。

如需切换地图:点击带黑十字的绿色按钮放大地图;点击带横线的绿色按钮缩小地图;或者点击绿色箭头查看邻近地区的地图。


METAR-TAF: